Time;durP1;ratioP1;P1;durP2;ratioP2;P2;SDS_P1;SDS_P2;PMS_P1;PMS_P2;Temp;Humidity;BMP_temperature;BMP_pressure;BME280_temperature;BME280_humidity;BME280_pressure;Samples;Min_cycle;Max_cycle;Signal;HPM_P1;HPM_P2
2021/12/02 00:02:37;;;;;;;1.15;0.50;;;;;;;-148.56;100.00;61375.16;5018593;28;20551;-30
2021/12/02 00:06:02;;;;;;;1.00;0.50;;;;;;;-148.56;100.00;61375.16;5017250;28;20044;-32
2021/12/02 00:09:26;;;;;;;1.35;0.63;;;;;;;-148.56;100.00;61375.16;5021067;28;20029;-29
2021/12/02 00:12:52;;;;;;;1.13;0.50;;;;;;;-148.56;100.00;61375.16;5022305;28;20029;-31
2021/12/02 00:17:03;;;;;;;1.33;0.50;;;;;;;-148.56;100.00;61375.16;5025961;28;20041;-30
2021/12/02 00:24:09;;;;;;;1.30;0.60;;;;;;;-148.56;100.00;61375.16;5028594;28;20060;-29
2021/12/02 00:27:34;;;;;;;2.20;0.73;;;;;;;-148.56;100.00;61375.16;5027721;28;20677;-28
2021/12/02 00:30:59;;;;;;;0.73;0.38;;;;;;;-148.56;100.00;61375.16;5040758;28;20036;-29
2021/12/02 00:34:23;;;;;;;1.83;0.55;;;;;;;-148.56;100.00;61375.16;5029485;28;20057;-30
2021/12/02 00:37:47;;;;;;;1.63;0.57;;;;;;;-148.56;100.00;61375.16;5040439;28;20040;-29
2021/12/02 00:41:11;;;;;;;1.83;0.60;;;;;;;-148.56;100.00;61375.16;5022977;28;20032;-27
2021/12/02 00:44:36;;;;;;;1.60;0.30;;;;;;;-148.56;100.00;61375.16;5021160;28;20588;-30
2021/12/02 00:48:00;;;;;;;2.15;0.65;;;;;;;-148.56;100.00;61375.16;5019333;28;20029;-29
2021/12/02 00:51:24;;;;;;;2.35;0.50;;;;;;;-148.56;100.00;61375.16;5023815;28;20080;-31
2021/12/02 00:54:48;;;;;;;3.15;0.68;;;;;;;-148.56;100.00;61375.16;5042996;28;20033;-29
2021/12/02 00:58:12;;;;;;;0.30;0.30;;;;;;;-148.56;100.00;61375.16;5032330;28;20758;-31
2021/12/02 01:01:37;;;;;;;1.38;0.40;;;;;;;-148.56;100.00;61375.16;5036582;28;20121;-31
2021/12/02 01:05:03;;;;;;;1.02;0.43;;;;;;;-148.56;100.00;61375.16;5024458;28;20025;-28
2021/12/02 01:08:27;;;;;;;1.90;0.60;;;;;;;-148.56;100.00;61375.16;5021645;28;20057;-29
2021/12/02 01:11:54;;;;;;;0.85;0.30;;;;;;;-148.56;100.00;61375.16;5031810;28;20032;-29
2021/12/02 01:15:18;;;;;;;0.57;0.30;;;;;;;-148.56;100.00;61375.16;5022123;28;20037;-32
2021/12/02 01:18:42;;;;;;;1.50;0.40;;;;;;;-148.56;100.00;61375.16;5022973;28;20099;-28
2021/12/02 01:22:06;;;;;;;1.20;0.90;;;;;;;-148.56;100.00;61375.16;5028145;28;20021;-28
2021/12/02 01:25:31;;;;;;;1.02;0.40;;;;;;;-148.56;100.00;61375.16;5010813;28;20557;-29
2021/12/02 01:28:54;;;;;;;0.50;0.30;;;;;;;-148.56;100.00;61375.16;5029244;28;20452;-33
2021/12/02 01:32:18;;;;;;;1.55;0.47;;;;;;;-148.56;100.00;61375.16;5022375;28;20038;-31
2021/12/02 01:35:43;;;;;;;1.15;0.50;;;;;;;-148.56;100.00;61375.16;5021950;28;20118;-27
2021/12/02 01:39:07;;;;;;;2.58;0.77;;;;;;;-148.56;100.00;61375.16;5036611;28;20052;-29
2021/12/02 01:42:45;;;;;;;1.27;0.40;;;;;;;-148.56;100.00;61375.16;5021663;28;20118;-29
2021/12/02 01:46:09;;;;;;;1.10;0.45;;;;;;;-148.56;100.00;61375.16;5021879;28;20036;-28
2021/12/02 01:49:36;;;;;;;0.93;0.55;;;;;;;-148.56;100.00;61375.16;5022409;28;20429;-27
2021/12/02 01:53:00;;;;;;;1.15;0.40;;;;;;;-148.56;100.00;61375.16;5019278;28;20133;-28
2021/12/02 01:56:25;;;;;;;0.95;0.35;;;;;;;-148.56;100.00;61375.16;5021858;28;20033;-28
2021/12/02 01:59:49;;;;;;;3.80;0.40;;;;;;;-148.56;100.00;61375.16;5039062;28;20061;-28
2021/12/02 02:03:14;;;;;;;0.85;0.50;;;;;;;-148.56;100.00;61375.16;5036395;28;20599;-28
2021/12/02 02:06:41;;;;;;;1.13;0.40;;;;;;;-148.56;100.00;61375.16;5024144;28;20032;-31
2021/12/02 02:10:06;;;;;;;0.20;0.20;;;;;;;-148.56;100.00;61375.16;5037381;28;20582;-29
2021/12/02 02:13:29;;;;;;;0.28;0.28;;;;;;;-148.56;100.00;61375.16;5019941;28;20036;-31
2021/12/02 02:16:54;;;;;;;0.98;0.43;;;;;;;-148.56;100.00;61375.16;5022244;28;20033;-28
2021/12/02 02:20:21;;;;;;;2.90;0.40;;;;;;;-148.56;100.00;61375.16;5020661;28;20120;-30
2021/12/02 02:23:50;;;;;;;0.80;0.45;;;;;;;-148.56;100.00;61375.16;5025453;28;20017;-29
2021/12/02 02:27:14;;;;;;;1.27;0.40;;;;;;;-148.56;100.00;61375.16;5023166;28;20124;-30
2021/12/02 02:30:38;;;;;;;2.22;0.50;;;;;;;-148.56;100.00;61375.16;5025049;28;20029;-29
2021/12/02 02:34:02;;;;;;;1.88;0.40;;;;;;;-148.56;100.00;61375.16;5026984;28;20073;-29
2021/12/02 02:37:33;;;;;;;0.98;0.30;;;;;;;-148.56;100.00;61375.16;5040124;28;20036;-27
2021/12/02 02:40:59;;;;;;;0.98;0.30;;;;;;;-148.56;100.00;61375.16;5020958;28;20524;-29
2021/12/02 02:44:23;;;;;;;0.60;0.35;;;;;;;-148.56;100.00;61375.16;5020009;28;20156;-29
2021/12/02 02:47:47;;;;;;;0.63;0.30;;;;;;;-148.56;100.00;61375.16;5029522;28;20163;-28
2021/12/02 02:51:12;;;;;;;1.77;0.40;;;;;;;-148.56;100.00;61375.16;5019232;28;20025;-26
2021/12/02 02:54:35;;;;;;;0.55;0.28;;;;;;;-148.56;100.00;61375.16;5021344;28;20628;-31
2021/12/02 02:58:07;;;;;;;0.88;0.32;;;;;;;-148.56;100.00;61375.16;5018955;28;20049;-30
2021/12/02 03:08:33;;;;;;;0.65;0.30;;;;;;;-148.56;100.00;61375.16;5026820;28;20083;-28
2021/12/02 03:12:19;;;;;;;0.65;0.40;;;;;;;-148.56;100.00;61375.16;5033058;28;20090;-30
2021/12/02 03:19:27;;;;;;;1.10;0.30;;;;;;;-148.56;100.00;61375.16;5033892;28;20536;-28
2021/12/02 03:22:51;;;;;;;0.35;0.22;;;;;;;-148.56;100.00;61375.16;5019624;28;20057;-32
2021/12/02 03:26:15;;;;;;;0.60;0.30;;;;;;;-148.56;100.00;61375.16;5020092;28;20037;-27
2021/12/02 03:29:40;;;;;;;1.65;0.40;;;;;;;-148.56;100.00;61375.16;5016943;28;20048;-27
2021/12/02 03:33:04;;;;;;;0.17;0.10;;;;;;;-148.56;100.00;61375.16;5020471;28;20082;-29
2021/12/02 03:36:28;;;;;;;0.88;0.30;;;;;;;-148.56;100.00;61375.16;5019643;28;20025;-39
2021/12/02 03:39:52;;;;;;;0.95;0.40;;;;;;;-148.56;100.00;61375.16;5027497;28;20029;-30
2021/12/02 03:43:16;;;;;;;1.00;0.32;;;;;;;-148.56;100.00;61375.16;5018682;28;20405;-30
2021/12/02 03:46:40;;;;;;;0.80;0.40;;;;;;;-148.56;100.00;61375.16;5021663;28;20140;-30
2021/12/02 03:50:04;;;;;;;0.52;0.30;;;;;;;-148.56;100.00;61375.16;5038431;28;20029;-32
2021/12/02 03:53:28;;;;;;;1.02;0.40;;;;;;;-148.56;100.00;61375.16;5024705;28;20163;-29
2021/12/02 03:56:52;;;;;;;0.98;0.20;;;;;;;-148.56;100.00;61375.16;5026200;28;20029;-33
2021/12/02 04:00:16;;;;;;;2.33;0.40;;;;;;;-148.56;100.00;61375.16;5025407;28;20646;-28
2021/12/02 04:03:40;;;;;;;1.45;0.50;;;;;;;-148.56;100.00;61375.16;5027404;28;20061;-31
2021/12/02 04:07:04;;;;;;;0.65;0.28;;;;;;;-148.56;100.00;61375.16;5028440;28;20037;-27
2021/12/02 04:10:30;;;;;;;2.22;0.20;;;;;;;-148.56;100.00;61375.16;5025802;28;20577;-31
2021/12/02 04:14:04;;;;;;;0.65;0.30;;;;;;;-148.56;100.00;61375.16;5024332;28;20024;-30
2021/12/02 04:17:40;;;;;;;1.02;0.47;;;;;;;-148.56;100.00;61375.16;5039976;28;20017;-28
2021/12/02 04:21:04;;;;;;;0.73;0.20;;;;;;;-148.56;100.00;61375.16;5026665;28;20039;-29
2021/12/02 04:24:28;;;;;;;0.43;0.30;;;;;;;-148.56;100.00;61375.16;5026806;28;20162;-30
2021/12/02 04:27:52;;;;;;;0.70;0.40;;;;;;;-148.56;100.00;61375.16;5021897;28;20499;-29
2021/12/02 04:31:20;;;;;;;0.50;0.30;;;;;;;-148.56;100.00;61375.16;5026439;28;20937;-29
2021/12/02 04:34:44;;;;;;;1.02;0.30;;;;;;;-148.56;100.00;61375.16;5024382;28;20031;-30
2021/12/02 04:38:08;;;;;;;1.55;0.38;;;;;;;-148.56;100.00;61375.16;5024195;28;20544;-29
2021/12/02 04:41:32;;;;;;;0.45;0.10;;;;;;;-148.56;100.00;61375.16;5024844;28;20040;-30
2021/12/02 04:44:55;;;;;;;0.28;0.20;;;;;;;-148.56;100.00;61375.16;5021601;28;20266;-30
2021/12/02 04:48:19;;;;;;;0.32;0.17;;;;;;;-148.56;100.00;61375.16;5026043;28;20412;-32
2021/12/02 04:51:43;;;;;;;0.57;0.20;;;;;;;-148.56;100.00;61375.16;5029580;28;20056;-28
2021/12/02 04:55:07;;;;;;;0.20;0.20;;;;;;;-148.56;100.00;61375.16;5027968;28;20028;-29
2021/12/02 04:58:31;;;;;;;1.00;0.32;;;;;;;-148.56;100.00;61375.16;5024831;28;20128;-31
2021/12/02 05:01:55;;;;;;;0.55;0.22;;;;;;;-148.56;100.00;61375.16;5034434;28;20032;-32
2021/12/02 05:05:19;;;;;;;0.55;0.22;;;;;;;-148.56;100.00;61375.16;5029137;28;20376;-30
2021/12/02 05:08:43;;;;;;;0.43;0.20;;;;;;;-148.56;100.00;61375.16;5027257;28;20060;-29
2021/12/02 05:12:07;;;;;;;0.63;0.22;;;;;;;-148.56;100.00;61375.16;5027693;28;20871;-29
2021/12/02 05:15:31;;;;;;;1.10;0.40;;;;;;;-148.56;100.00;61375.16;5034383;28;20032;-30
2021/12/02 05:18:54;;;;;;;1.65;0.30;;;;;;;-148.56;100.00;61375.16;5035395;28;20151;-30
2021/12/02 05:22:18;;;;;;;3.67;0.73;;;;;;;-148.56;100.00;61375.16;5028889;28;20037;-29
2021/12/02 05:25:44;;;;;;;4.13;1.30;;;;;;;-148.56;100.00;61375.16;5025587;28;20033;-28
2021/12/02 05:29:09;;;;;;;2.33;0.50;;;;;;;-148.56;100.00;61375.16;5019797;28;20021;-31
2021/12/02 05:32:32;;;;;;;1.95;0.45;;;;;;;-148.56;100.00;61375.16;5021595;28;20635;-29
2021/12/02 05:35:57;;;;;;;4.03;0.47;;;;;;;-148.56;100.00;61375.16;5024142;28;20116;-32
2021/12/02 05:39:21;;;;;;;1.88;0.55;;;;;;;-148.56;100.00;61375.16;5033925;28;20029;-30
2021/12/02 05:42:44;;;;;;;1.10;0.40;;;;;;;-148.56;100.00;61375.16;5025095;28;20393;-27
2021/12/02 05:46:08;;;;;;;0.95;0.38;;;;;;;-148.56;100.00;61375.16;5027306;28;20537;-31
2021/12/02 05:49:32;;;;;;;3.80;0.35;;;;;;;-148.56;100.00;61375.16;5027640;28;20028;-30
2021/12/02 05:52:56;;;;;;;0.95;0.50;;;;;;;-148.56;100.00;61375.16;5023644;28;20040;-32
2021/12/02 05:56:20;;;;;;;0.60;0.40;;;;;;;-148.56;100.00;61375.16;5029219;28;20082;-32
2021/12/02 05:59:45;;;;;;;1.42;0.47;;;;;;;-148.56;100.00;61375.16;5029807;28;20060;-31
2021/12/02 06:03:09;;;;;;;0.88;0.40;;;;;;;-148.56;100.00;61375.16;5026733;28;20464;-29
2021/12/02 06:06:33;;;;;;;1.35;0.55;;;;;;;-148.56;100.00;61375.16;5028924;28;20880;-30
2021/12/02 06:09:57;;;;;;;1.13;0.40;;;;;;;-148.56;100.00;61375.16;5029606;28;20036;-29
2021/12/02 06:13:20;;;;;;;1.55;0.60;;;;;;;-148.56;100.00;61375.16;5028327;28;20025;-31
2021/12/02 06:16:44;;;;;;;2.50;0.35;;;;;;;-148.56;100.00;61375.16;5035174;28;20036;-31
2021/12/02 06:20:09;;;;;;;0.20;0.20;;;;;;;-148.56;100.00;61375.16;5026257;28;20032;-33
2021/12/02 06:23:32;;;;;;;0.47;0.30;;;;;;;-148.56;100.00;61375.16;5027930;28;20025;-31
2021/12/02 06:26:56;;;;;;;1.00;0.35;;;;;;;-148.56;100.00;61375.16;5028768;28;20732;-30
2021/12/02 06:30:21;;;;;;;0.40;0.25;;;;;;;-148.56;100.00;61375.16;5029396;28;20093;-28
2021/12/02 06:33:45;;;;;;;1.60;0.30;;;;;;;-148.56;100.00;61375.16;5026731;28;20029;-31
2021/12/02 06:37:09;;;;;;;1.10;0.20;;;;;;;-148.56;100.00;61375.16;5025824;28;20054;-30
2021/12/02 06:40:34;;;;;;;0.88;0.20;;;;;;;-148.56;100.00;61375.16;5027813;28;20080;-30
2021/12/02 06:43:58;;;;;;;0.47;0.25;;;;;;;-148.56;100.00;61375.16;5026088;28;20021;-31
2021/12/02 06:47:27;;;;;;;0.73;0.30;;;;;;;-148.56;100.00;61375.16;5026163;28;20505;-28
2021/12/02 06:50:51;;;;;;;1.10;0.30;;;;;;;-148.56;100.00;61375.16;5040789;28;20044;-30
2021/12/02 06:54:15;;;;;;;0.30;0.10;;;;;;;-148.56;100.00;61375.16;5024758;28;20035;-29
2021/12/02 06:57:39;;;;;;;1.05;0.52;;;;;;;-148.56;100.00;61375.16;5025707;28;20580;-30
2021/12/02 07:01:04;;;;;;;0.30;0.20;;;;;;;-148.56;100.00;61375.16;5040336;28;20036;-28
2021/12/02 07:04:28;;;;;;;2.67;0.38;;;;;;;-148.56;100.00;61375.16;5028324;28;20767;-29
2021/12/02 07:07:51;;;;;;;0.38;0.20;;;;;;;-148.56;100.00;61375.16;5025871;28;20036;-32
2021/12/02 07:11:16;;;;;;;1.45;0.38;;;;;;;-148.56;100.00;61375.16;5026448;28;20387;-31
2021/12/02 07:14:45;;;;;;;0.85;0.30;;;;;;;-148.56;100.00;61375.16;5026677;28;20041;-30
2021/12/02 07:18:13;;;;;;;1.35;0.50;;;;;;;-148.56;100.00;61375.16;5022176;28;20049;-31
2021/12/02 07:21:37;;;;;;;2.75;0.50;;;;;;;-148.56;100.00;61375.16;5022483;28;20115;-33
2021/12/02 07:25:02;;;;;;;2.33;0.60;;;;;;;-148.56;100.00;61375.16;5026282;28;20120;-32
2021/12/02 07:28:26;;;;;;;4.18;0.90;;;;;;;-148.56;100.00;61375.16;5022402;28;20033;-28
2021/12/02 07:31:50;;;;;;;12.10;1.70;;;;;;;-148.56;100.00;61375.16;5034569;28;21030;-31
2021/12/02 07:35:15;;;;;;;16.08;1.52;;;;;;;-148.56;100.00;61375.16;5021598;28;20564;-35
2021/12/02 07:38:57;;;;;;;5.68;1.40;;;;;;;-148.56;100.00;61375.16;5018306;28;20020;-29
2021/12/02 07:42:21;;;;;;;14.02;2.00;;;;;;;-148.56;100.00;61375.16;5014882;28;20694;-31
2021/12/02 07:45:45;;;;;;;8.88;1.80;;;;;;;-148.56;100.00;61375.16;5023977;28;20037;-30
2021/12/02 07:49:11;;;;;;;8.98;1.70;;;;;;;-148.56;100.00;61375.16;5021439;28;20252;-29
2021/12/02 07:52:35;;;;;;;4.30;1.63;;;;;;;-148.56;100.00;61375.16;5019945;28;20029;-30
2021/12/02 07:56:03;;;;;;;5.18;1.42;;;;;;;-148.56;100.00;61375.16;5026047;28;20168;-28
2021/12/02 07:59:27;;;;;;;4.55;1.45;;;;;;;-148.56;100.00;61375.16;5023417;28;20338;-31
2021/12/02 08:02:51;;;;;;;4.18;1.48;;;;;;;-148.56;100.00;61375.16;5024460;28;20119;-28
2021/12/02 08:06:15;;;;;;;4.85;1.50;;;;;;;-148.56;100.00;61375.16;5028629;28;20112;-29
2021/12/02 08:09:39;;;;;;;3.47;1.58;;;;;;;-148.56;100.00;61375.16;5020902;28;20025;-31
2021/12/02 08:13:04;;;;;;;2.95;1.60;;;;;;;-148.56;100.00;61375.16;5023907;28;20053;-30
2021/12/02 08:16:28;;;;;;;2.15;1.20;;;;;;;-148.56;100.00;61375.16;5024310;28;20025;-31
2021/12/02 08:19:52;;;;;;;2.85;1.30;;;;;;;-148.56;100.00;61375.16;5021384;28;20615;-29
2021/12/02 08:23:18;;;;;;;4.10;1.50;;;;;;;-148.56;100.00;61375.16;5026566;28;20136;-30
2021/12/02 08:26:42;;;;;;;4.15;1.35;;;;;;;-148.56;100.00;61375.16;5023807;28;20029;-30
2021/12/02 08:30:06;;;;;;;4.68;1.65;;;;;;;-148.56;100.00;61375.16;5024757;28;20036;-29
2021/12/02 08:33:30;;;;;;;7.32;1.55;;;;;;;-148.56;100.00;61375.16;5030368;28;20040;-32
2021/12/02 08:36:54;;;;;;;2.95;1.70;;;;;;;-148.56;100.00;61375.16;5019929;28;20116;-28
2021/12/02 08:40:19;;;;;;;4.35;1.20;;;;;;;-148.56;100.00;61375.16;5021840;28;20021;-29
2021/12/02 08:43:44;;;;;;;3.75;1.30;;;;;;;-148.56;100.00;61375.16;5024570;28;20378;-27
2021/12/02 08:47:09;;;;;;;2.75;1.48;;;;;;;-148.56;100.00;61375.16;5031702;28;20037;-31
2021/12/02 08:50:33;;;;;;;2.50;1.00;;;;;;;-148.56;100.00;61375.16;5021513;28;20464;-30
2021/12/02 08:53:56;;;;;;;5.93;1.33;;;;;;;-148.56;100.00;61375.16;5023722;28;20094;-31
2021/12/02 08:57:21;;;;;;;3.40;1.40;;;;;;;-148.56;100.00;61375.16;5018467;28;20033;-30
2021/12/02 09:00:46;;;;;;;4.50;1.20;;;;;;;-148.56;100.00;61375.16;5015886;28;20400;-29
2021/12/02 09:04:11;;;;;;;4.05;2.28;;;;;;;-148.56;100.00;61375.16;5031132;28;20029;-30
2021/12/02 09:07:35;;;;;;;2.15;0.90;;;;;;;-148.56;100.00;61375.16;5024124;28;20028;-29
2021/12/02 09:10:59;;;;;;;5.82;1.40;;;;;;;-148.56;100.00;61375.16;5023883;28;20642;-30
2021/12/02 09:14:23;;;;;;;11.55;2.28;;;;;;;-148.56;100.00;61375.16;5024520;28;20028;-30
2021/12/02 09:17:47;;;;;;;6.00;2.55;;;;;;;-148.56;100.00;61375.16;5024622;28;20045;-30
2021/12/02 09:21:11;;;;;;;7.55;1.67;;;;;;;-148.56;100.00;61375.16;5028374;28;20034;-30
2021/12/02 09:24:36;;;;;;;3.63;1.52;;;;;;;-148.56;100.00;61375.16;5024684;28;20712;-28
2021/12/02 09:28:00;;;;;;;3.95;1.67;;;;;;;-148.56;100.00;61375.16;5022278;28;20025;-29
2021/12/02 09:31:24;;;;;;;4.10;2.17;;;;;;;-148.56;100.00;61375.16;5029200;28;20028;-30
2021/12/02 09:34:48;;;;;;;6.05;1.77;;;;;;;-148.56;100.00;61375.16;5025849;28;20059;-31
2021/12/02 09:38:12;;;;;;;7.53;2.00;;;;;;;-148.56;100.00;61375.16;5025468;28;20238;-30
2021/12/02 09:41:36;;;;;;;4.30;1.90;;;;;;;-148.56;100.00;61375.16;5027659;28;20040;-29
2021/12/02 09:45:01;;;;;;;3.83;1.77;;;;;;;-148.56;100.00;61375.16;5028840;28;20029;-28
2021/12/02 09:48:29;;;;;;;6.57;1.65;;;;;;;-148.56;100.00;61375.16;5028268;28;20049;-30
2021/12/02 09:59:11;;;;;;;;;;;;;;;-148.56;100.00;61375.16;5029979;28;20056;-30
2021/12/02 10:02:42;;;;;;;7.47;2.70;;;;;;;-148.56;100.00;61375.16;5030096;28;19916;-31
2021/12/02 10:06:07;;;;;;;8.88;2.80;;;;;;;-148.56;100.00;61375.16;5029940;28;20108;-30
2021/12/02 10:09:49;;;;;;;6.13;2.53;;;;;;;-148.56;100.00;61375.16;5029400;28;20079;-30
2021/12/02 10:13:31;;;;;;;6.32;2.40;;;;;;;-148.56;100.00;61375.16;5044124;28;20057;-29
2021/12/02 10:17:06;;;;;;;9.18;2.47;;;;;;;-148.56;100.00;61375.16;5031176;28;20060;-33
2021/12/02 10:20:34;;;;;;;5.60;2.40;;;;;;;-148.56;100.00;61375.16;5028957;28;20040;-31
2021/12/02 10:24:11;;;;;;;6.88;2.30;;;;;;;-148.56;100.00;61375.16;5030063;28;20108;-30
2021/12/02 10:27:51;;;;;;;7.93;2.67;;;;;;;-148.56;100.00;61375.16;5027486;28;20024;-27
2021/12/02 10:31:22;;;;;;;6.20;2.30;;;;;;;-148.56;100.00;61375.16;5040619;28;20025;-29
2021/12/02 10:34:52;;;;;;;7.80;2.58;;;;;;;-148.56;100.00;61375.16;5027009;28;20079;-32
2021/12/02 10:38:33;;;;;;;6.43;2.25;;;;;;;-148.56;100.00;61375.16;5026676;28;20033;-29
2021/12/02 10:42:05;;;;;;;5.90;2.15;;;;;;;-148.56;100.00;61375.16;5026669;28;20893;-32
2021/12/02 10:45:30;;;;;;;4.50;1.85;;;;;;;-148.56;100.00;61375.16;5044263;28;20044;-29
2021/12/02 10:48:54;;;;;;;5.78;2.10;;;;;;;-148.56;100.00;61375.16;5036527;28;20037;-30
2021/12/02 10:52:34;;;;;;;21.20;5.65;;;;;;;-148.56;100.00;61375.16;5042237;28;20448;-29
2021/12/02 10:56:10;;;;;;;35.67;9.23;;;;;;;-148.56;100.00;61375.16;5025437;28;20063;-30
2021/12/02 10:59:34;;;;;;;37.70;10.05;;;;;;;-148.56;100.00;61375.16;5027064;28;20025;-29
2021/12/02 11:03:08;;;;;;;43.40;11.95;;;;;;;-148.56;100.00;61375.16;5026615;28;20532;-30
2021/12/02 11:06:45;;;;;;;33.60;10.23;;;;;;;-148.56;100.00;61375.16;5019514;28;20130;-29
2021/12/02 11:10:22;;;;;;;37.60;8.70;;;;;;;-148.56;100.00;61375.16;5025147;28;20025;-28
2021/12/02 11:13:50;;;;;;;33.10;8.63;;;;;;;-148.56;100.00;61375.16;5042560;28;20035;-31
2021/12/02 11:17:32;;;;;;;32.47;9.85;;;;;;;-148.56;100.00;61375.16;5034049;28;20037;-33
2021/12/02 11:20:59;;;;;;;27.38;7.35;;;;;;;-148.56;100.00;61375.16;5027363;28;20051;-33
2021/12/02 11:24:33;;;;;;;30.55;7.68;;;;;;;-148.56;100.00;61375.16;5021641;28;20067;-33
2021/12/02 11:28:30;;;;;;;25.05;7.85;;;;;;;-148.56;100.00;61375.16;5019529;28;20029;-33
2021/12/02 11:31:54;;;;;;;25.63;7.65;;;;;;;-148.56;100.00;61375.16;5013402;28;20135;-30
2021/12/02 11:35:23;;;;;;;36.35;8.40;;;;;;;-148.56;100.00;61375.16;5022861;28;20029;-29
2021/12/02 11:38:53;;;;;;;21.48;6.85;;;;;;;-148.56;100.00;61375.16;5030460;28;20078;-32
2021/12/02 11:42:16;;;;;;;22.70;7.07;;;;;;;-148.56;100.00;61375.16;5017368;28;20819;-31
2021/12/02 11:45:49;;;;;;;29.77;7.40;;;;;;;-148.56;100.00;61375.16;5021531;28;20026;-33
2021/12/02 11:49:16;;;;;;;29.42;7.72;;;;;;;-148.56;100.00;61375.16;5023069;28;20036;-32
2021/12/02 11:52:40;;;;;;;21.50;6.65;;;;;;;-148.56;100.00;61375.16;5035523;28;20028;-32
2021/12/02 11:56:13;;;;;;;26.27;7.13;;;;;;;-148.56;100.00;61375.16;5021775;28;20120;-32
2021/12/02 11:59:36;;;;;;;25.30;6.07;;;;;;;-148.56;100.00;61375.16;5023148;28;20025;-33
2021/12/02 12:03:00;;;;;;;23.63;6.50;;;;;;;-148.56;100.00;61375.16;5030009;28;20650;-32
2021/12/02 12:06:26;;;;;;;19.23;5.60;;;;;;;-148.56;100.00;61375.16;5032075;28;20025;-29
2021/12/02 12:10:08;;;;;;;22.67;6.50;;;;;;;-148.56;100.00;61375.16;5031749;28;20040;-31
2021/12/02 12:13:37;;;;;;;24.10;6.10;;;;;;;-148.56;100.00;61375.16;5046110;28;20033;-32
2021/12/02 12:17:20;;;;;;;25.95;6.40;;;;;;;-148.56;100.00;61375.16;5039995;28;20129;-29
2021/12/02 12:20:51;;;;;;;21.30;5.68;;;;;;;-148.56;100.00;61375.16;5030447;28;20044;-27
2021/12/02 12:24:42;;;;;;;18.08;5.35;;;;;;;-148.56;100.00;61375.16;5028260;28;20033;-30
2021/12/02 12:28:26;;;;;;;18.10;5.53;;;;;;;-148.56;100.00;61375.16;5030243;28;20066;-30
2021/12/02 12:39:19;;;;;;;22.00;4.72;;;;;;;-148.56;100.00;61375.16;5018677;28;20060;-32
2021/12/02 12:43:03;;;;;;;21.02;4.78;;;;;;;-148.56;100.00;61375.16;5010437;28;20478;-29
2021/12/02 12:46:31;;;;;;;17.98;5.22;;;;;;;-148.56;100.00;61375.16;5022097;28;20031;-32
2021/12/02 12:50:14;;;;;;;20.90;5.10;;;;;;;-148.56;100.00;61375.16;5019948;28;20528;-29
2021/12/02 12:53:38;;;;;;;21.02;5.18;;;;;;;-148.56;100.00;61375.16;5031037;28;20148;-30
2021/12/02 12:57:04;;;;;;;50.10;15.55;;;;;;;-148.56;100.00;61375.16;5023131;28;20032;-27
2021/12/02 13:00:54;;;;;;;112.05;38.10;;;;;;;-148.56;100.00;61375.16;5022460;28;20024;-31
2021/12/02 13:04:24;;;;;;;172.88;55.90;;;;;;;-148.56;100.00;61375.16;5002973;28;20076;-29
2021/12/02 13:08:08;;;;;;;178.02;58.88;;;;;;;-148.56;100.00;61375.16;5025651;28;20029;-30
2021/12/02 13:11:33;;;;;;;62.22;20.98;;;;;;;-148.56;100.00;61375.16;5023968;28;20127;-28
2021/12/02 13:14:57;;;;;;;94.45;31.33;;;;;;;-148.56;100.00;61375.16;5027223;28;20064;-31
2021/12/02 13:18:34;;;;;;;156.27;54.75;;;;;;;-148.56;100.00;61375.16;5025433;28;20033;-28
2021/12/02 13:22:16;;;;;;;204.57;81.18;;;;;;;-148.56;100.00;61375.16;5020091;28;20032;-31
2021/12/02 13:25:41;;;;;;;208.02;89.68;;;;;;;-148.56;100.00;61375.16;5022421;28;20032;-29
2021/12/02 13:29:16;;;;;;;231.60;104.70;;;;;;;-148.56;100.00;61375.16;5029815;28;20028;-30
2021/12/02 13:32:47;;;;;;;246.60;104.93;;;;;;;-148.56;100.00;61375.16;5023935;28;20026;-30
2021/12/02 13:36:39;;;;;;;218.43;98.68;;;;;;;-148.56;100.00;61375.16;5030652;28;20048;-30
2021/12/02 13:40:14;;;;;;;187.27;85.03;;;;;;;-148.56;100.00;61375.16;5029746;28;20558;-28
2021/12/02 13:43:53;;;;;;;185.90;81.35;;;;;;;-148.56;100.00;61375.16;5025686;28;20501;-28
2021/12/02 13:47:32;;;;;;;177.93;76.97;;;;;;;-148.56;100.00;61375.16;5018642;28;20560;-29
2021/12/02 13:50:57;;;;;;;171.57;71.60;;;;;;;-148.56;100.00;61375.16;5032589;28;20037;-29
2021/12/02 13:54:22;;;;;;;150.55;66.03;;;;;;;-148.56;100.00;61375.16;5023007;28;20029;-31
2021/12/02 13:57:53;;;;;;;143.35;58.97;;;;;;;-148.56;100.00;61375.16;5023453;28;20029;-29
2021/12/02 14:01:21;;;;;;;126.20;58.17;;;;;;;-148.56;100.00;61375.16;5025116;28;20041;-30
2021/12/02 14:04:45;;;;;;;125.60;57.03;;;;;;;-148.56;100.00;61375.16;5037459;28;20553;-27
2021/12/02 14:08:13;;;;;;;127.50;54.60;;;;;;;-148.56;100.00;61375.16;5022606;28;20123;-32
2021/12/02 14:11:37;;;;;;;134.90;55.42;;;;;;;-148.56;100.00;61375.16;5024382;28;20029;-30
2021/12/02 14:15:04;;;;;;;131.18;52.65;;;;;;;-148.56;100.00;61375.16;5024840;28;20029;-30
2021/12/02 14:18:29;;;;;;;112.75;51.03;;;;;;;-148.56;100.00;61375.16;5023048;28;20078;-28
2021/12/02 14:22:00;;;;;;;110.57;48.75;;;;;;;-148.56;100.00;61375.16;5024374;28;20029;-30
2021/12/02 14:25:25;;;;;;;99.63;48.20;;;;;;;-148.56;100.00;61375.16;5036925;28;20413;-32
2021/12/02 14:29:08;;;;;;;101.75;47.53;;;;;;;-148.56;100.00;61375.16;5026798;28;20025;-32
2021/12/02 14:32:35;;;;;;;104.47;47.58;;;;;;;-148.56;100.00;61375.16;5020966;28;20083;-29
2021/12/02 14:36:03;;;;;;;99.95;45.60;;;;;;;-148.56;100.00;61375.16;5021269;28;20036;-30
2021/12/02 14:39:31;;;;;;;95.97;44.08;;;;;;;-148.56;100.00;61375.16;5022659;28;20033;-31
2021/12/02 14:43:11;;;;;;;98.25;44.75;;;;;;;-148.56;100.00;61375.16;5028323;28;20615;-35
2021/12/02 14:46:37;;;;;;;85.88;42.47;;;;;;;-148.56;100.00;61375.16;5042884;28;20121;-31
2021/12/02 14:50:12;;;;;;;87.45;42.03;;;;;;;-148.56;100.00;61375.16;5026416;28;20491;-31
2021/12/02 14:53:43;;;;;;;71.53;39.15;;;;;;;-148.56;100.00;61375.16;5021319;28;20365;-31
2021/12/02 14:57:24;;;;;;;80.18;39.92;;;;;;;-148.56;100.00;61375.16;5021138;28;20779;-33
2021/12/02 15:01:13;;;;;;;72.70;38.88;;;;;;;-148.56;100.00;61375.16;5020837;28;20075;-30
2021/12/02 15:04:39;;;;;;;80.88;39.45;;;;;;;-148.56;100.00;61375.16;5023046;28;20024;-30
2021/12/02 15:08:22;;;;;;;77.97;37.70;;;;;;;-148.56;100.00;61375.16;5023491;28;20159;-27
2021/12/02 15:11:47;;;;;;;87.30;39.25;;;;;;;-148.56;100.00;61375.16;5020588;28;20029;-28
2021/12/02 15:15:28;;;;;;;72.50;35.05;;;;;;;-148.56;100.00;61375.16;5021344;28;20512;-27
2021/12/02 15:18:52;;;;;;;76.25;36.72;;;;;;;-148.56;100.00;61375.16;5021481;28;20029;-31
2021/12/02 15:22:26;;;;;;;67.38;35.60;;;;;;;-148.56;100.00;61375.16;5020764;28;20040;-30
2021/12/02 15:26:05;;;;;;;65.35;35.25;;;;;;;-148.56;100.00;61375.16;5021190;28;20537;-30
2021/12/02 15:29:42;;;;;;;68.22;34.00;;;;;;;-148.56;100.00;61375.16;5026402;28;20412;-32
2021/12/02 15:33:06;;;;;;;87.03;35.05;;;;;;;-148.56;100.00;61375.16;5018100;28;20144;-29
2021/12/02 15:36:35;;;;;;;79.13;33.10;;;;;;;-148.56;100.00;61375.16;5023175;28;20120;-27
2021/12/02 15:39:59;;;;;;;62.10;33.50;;;;;;;-148.56;100.00;61375.16;5028423;28;20025;-32
2021/12/02 15:43:27;;;;;;;67.85;32.88;;;;;;;-148.56;100.00;61375.16;5025907;28;20041;-31
2021/12/02 15:46:58;;;;;;;62.63;31.38;;;;;;;-148.56;100.00;61375.16;5024314;28;20445;-30
2021/12/02 15:50:22;;;;;;;69.13;31.63;;;;;;;-148.56;100.00;61375.16;5024663;28;20329;-31
2021/12/02 15:53:46;;;;;;;76.10;32.75;;;;;;;-148.56;100.00;61375.16;5023201;28;20025;-27
2021/12/02 15:57:10;;;;;;;63.33;30.80;;;;;;;-148.56;100.00;61375.16;5023390;28;20037;-32
2021/12/02 16:00:34;;;;;;;59.38;30.85;;;;;;;-148.56;100.00;61375.16;5025151;28;20033;-30
2021/12/02 16:04:03;;;;;;;63.13;29.55;;;;;;;-148.56;100.00;61375.16;5024615;28;20040;-32
2021/12/02 16:07:36;;;;;;;58.05;29.33;;;;;;;-148.56;100.00;61375.16;5025473;28;20108;-28